createdAt,value
2019-03-29T00:00:46.535Z,17.40
2019-03-29T00:03:15.776Z,18.42
2019-03-29T00:05:45.100Z,20.60
2019-03-29T00:08:14.265Z,22.32
2019-03-29T00:10:43.596Z,20.20
2019-03-29T00:13:14.624Z,21.35
2019-03-29T00:15:43.773Z,19.92
2019-03-29T00:18:12.980Z,19.32
2019-03-29T00:20:42.208Z,19.37
2019-03-29T00:23:11.409Z,18.50
2019-03-29T00:25:41.115Z,17.92
2019-03-29T00:28:11.090Z,18.15
2019-03-29T00:30:40.621Z,17.80
2019-03-29T00:33:10.200Z,16.77
2019-03-29T00:35:39.433Z,17.40
2019-03-29T00:38:08.642Z,18.35
2019-03-29T00:40:37.855Z,18.37
2019-03-29T00:43:07.061Z,21.12
2019-03-29T00:45:36.298Z,18.15
2019-03-29T00:48:05.503Z,18.60
2019-03-29T00:50:34.714Z,16.87
2019-03-29T00:53:03.941Z,17.67
2019-03-29T00:55:33.445Z,17.32
2019-03-29T00:58:02.648Z,17.50
2019-03-29T01:00:33.666Z,16.82
2019-03-29T01:03:03.336Z,17.05
2019-03-29T01:05:32.566Z,17.27
2019-03-29T01:08:07.666Z,16.62
2019-03-29T01:10:32.725Z,17.75
2019-03-29T01:13:01.958Z,16.67
2019-03-29T01:15:31.159Z,20.45
2019-03-29T01:18:00.392Z,19.07
2019-03-29T01:20:29.590Z,19.55
2019-03-29T01:22:59.982Z,17.95
2019-03-29T01:25:29.216Z,19.27
2019-03-29T01:27:58.446Z,21.33
2019-03-29T01:30:27.658Z,19.87
2019-03-29T01:32:58.924Z,20.72
2019-03-29T01:35:28.185Z,21.20
2019-03-29T01:37:57.678Z,19.02
2019-03-29T01:40:26.920Z,19.52
2019-03-29T01:42:57.517Z,19.70
2019-03-29T01:45:26.730Z,21.97
2019-03-29T01:47:56.145Z,20.90
2019-03-29T01:50:25.612Z,19.95
2019-03-29T01:52:54.634Z,22.75
2019-03-29T01:55:23.878Z,21.65
2019-03-29T01:57:54.193Z,21.87
2019-03-29T02:00:31.686Z,20.52
2019-03-29T02:03:00.985Z,22.40
2019-03-29T02:05:30.537Z,22.10
2019-03-29T02:08:00.212Z,20.48
2019-03-29T02:10:29.485Z,22.15
2019-03-29T02:12:59.197Z,23.35
2019-03-29T02:15:29.027Z,21.82
2019-03-29T02:17:58.235Z,23.42
2019-03-29T02:20:27.545Z,24.40
2019-03-29T02:22:56.770Z,24.02
2019-03-29T02:25:26.399Z,21.80
2019-03-29T02:27:56.077Z,22.98
2019-03-29T02:30:25.693Z,21.77
2019-03-29T02:32:54.899Z,20.15
2019-03-29T02:35:24.130Z,22.87
2019-03-29T02:37:53.335Z,24.12
2019-03-29T02:40:22.813Z,23.38
2019-03-29T02:42:52.461Z,21.73
2019-03-29T02:45:21.666Z,25.35
2019-03-29T02:47:50.880Z,23.57
2019-03-29T02:50:20.121Z,23.25
2019-03-29T02:52:49.324Z,23.67
2019-03-29T02:55:18.533Z,22.02
2019-03-29T02:57:47.755Z,23.55
2019-03-29T03:00:17.451Z,26.60
2019-03-29T03:02:46.684Z,26.05
2019-03-29T03:05:16.035Z,25.02
2019-03-29T03:07:45.231Z,27.58
2019-03-29T03:10:15.081Z,29.27
2019-03-29T03:12:44.307Z,24.40
2019-03-29T03:15:14.036Z,25.60
2019-03-29T03:17:43.268Z,24.72
2019-03-29T03:20:15.805Z,26.93
2019-03-29T03:22:45.209Z,29.30
2019-03-29T03:25:14.598Z,28.02
2019-03-29T03:27:43.884Z,29.67
2019-03-29T03:30:13.979Z,26.33
2019-03-29T03:32:43.233Z,28.20
2019-03-29T03:35:15.724Z,27.90
2019-03-29T03:37:45.266Z,27.07
2019-03-29T03:40:14.747Z,28.25
2019-03-29T03:42:44.235Z,28.45
2019-03-29T03:45:13.626Z,29.57
2019-03-29T03:47:42.852Z,29.87
2019-03-29T03:50:38.736Z,29.48
2019-03-29T03:53:08.153Z,29.35
2019-03-29T03:55:39.667Z,31.02
2019-03-29T03:58:10.011Z,29.35
2019-03-29T04:00:58.741Z,30.70
2019-03-29T04:03:28.585Z,29.18
2019-03-29T04:05:58.120Z,30.32
2019-03-29T04:08:27.712Z,32.17
2019-03-29T04:10:57.588Z,30.43
2019-03-29T04:13:26.877Z,28.30
2019-03-29T04:15:56.091Z,26.97
2019-03-29T04:18:25.333Z,26.45
2019-03-29T04:20:54.615Z,29.92
2019-03-29T04:23:23.817Z,30.10
2019-03-29T04:25:53.138Z,29.05
2019-03-29T04:28:22.369Z,27.62
2019-03-29T04:30:51.570Z,27.58
2019-03-29T04:33:20.828Z,31.95
2019-03-29T04:35:50.109Z,28.87
2019-03-29T04:38:19.319Z,28.23
2019-03-29T04:40:48.564Z,28.10
2019-03-29T04:43:17.771Z,30.23
2019-03-29T04:45:46.971Z,32.35
2019-03-29T04:48:16.201Z,30.37
2019-03-29T04:50:45.480Z,27.25
2019-03-29T04:53:14.713Z,30.92
2019-03-29T04:55:43.914Z,29.65
2019-03-29T04:58:13.125Z,27.35
2019-03-29T05:00:42.351Z,29.23
2019-03-29T05:03:11.587Z,30.43
2019-03-29T05:05:40.785Z,33.15
2019-03-29T05:08:10.353Z,34.08
2019-03-29T05:10:39.579Z,33.38
2019-03-29T05:13:08.789Z,34.45
2019-03-29T05:15:37.977Z,35.33
2019-03-29T05:18:07.286Z,30.32
2019-03-29T05:20:36.519Z,34.70
2019-03-29T05:23:05.723Z,35.45
2019-03-29T05:25:34.930Z,31.70
2019-03-29T05:28:04.314Z,37.23
2019-03-29T05:30:33.513Z,37.35
2019-03-29T05:33:03.182Z,39.75
2019-03-29T05:35:32.414Z,40.25
2019-03-29T05:38:01.613Z,36.48
2019-03-29T05:40:35.066Z,37.15
2019-03-29T05:43:01.771Z,38.08
2019-03-29T05:45:30.969Z,39.10
2019-03-29T05:48:00.201Z,38.17
2019-03-29T05:50:29.393Z,36.23
2019-03-29T05:52:58.595Z,37.70
2019-03-29T05:55:32.707Z,36.95
2019-03-29T05:57:58.795Z,36.33
2019-03-29T06:00:28.022Z,42.30
2019-03-29T06:02:57.223Z,40.70
2019-03-29T06:05:26.727Z,38.58
2019-03-29T06:07:55.962Z,39.48
2019-03-29T06:10:25.179Z,40.92
2019-03-29T06:12:54.387Z,39.13
2019-03-29T06:15:23.614Z,37.93
2019-03-29T06:17:52.823Z,37.05
2019-03-29T06:20:22.035Z,37.25
2019-03-29T06:22:51.273Z,38.75
2019-03-29T06:25:20.508Z,35.25
2019-03-29T06:27:49.719Z,38.00
2019-03-29T06:30:31.041Z,35.85
2019-03-29T06:33:00.329Z,37.23
2019-03-29T06:35:33.742Z,36.17
2019-03-29T06:38:06.012Z,35.78
2019-03-29T06:40:35.526Z,35.90
2019-03-29T06:43:04.967Z,32.50
2019-03-29T06:45:46.869Z,30.95
2019-03-29T06:48:05.898Z,33.65
2019-03-29T06:50:35.127Z,29.12
2019-03-29T06:53:04.402Z,28.87
2019-03-29T06:55:33.694Z,28.62
2019-03-29T06:58:03.009Z,30.05
2019-03-29T07:00:32.210Z,27.13
2019-03-29T07:03:01.746Z,29.37
2019-03-29T07:05:31.070Z,25.55
2019-03-29T07:08:00.680Z,22.55
2019-03-29T07:10:29.883Z,22.62
2019-03-29T07:12:59.135Z,22.62
2019-03-29T07:15:28.406Z,22.45
2019-03-29T07:17:57.608Z,20.25
2019-03-29T07:20:26.837Z,23.40
2019-03-29T07:22:56.052Z,22.22
2019-03-29T07:25:25.264Z,19.90
2019-03-29T07:27:54.819Z,18.50
2019-03-29T07:30:24.477Z,20.97
2019-03-29T07:32:54.122Z,19.87
2019-03-29T07:35:23.408Z,19.87
2019-03-29T07:37:52.633Z,19.80
2019-03-29T07:40:21.871Z,16.97
2019-03-29T07:42:51.081Z,17.95
2019-03-29T07:45:20.377Z,17.75
2019-03-29T07:47:49.595Z,18.30
2019-03-29T07:50:19.296Z,17.17
2019-03-29T07:52:48.545Z,16.17
2019-03-29T07:55:18.369Z,17.40
2019-03-29T07:57:47.591Z,17.10
2019-03-29T08:00:20.210Z,16.10
2019-03-29T08:02:47.907Z,18.37
2019-03-29T08:05:17.905Z,18.05
2019-03-29T08:07:47.769Z,18.37
2019-03-29T08:10:25.994Z,17.15
2019-03-29T08:12:49.269Z,16.00
2019-03-29T08:18:42.446Z,17.67
2019-03-29T08:21:12.323Z,16.52
2019-03-29T08:23:42.393Z,17.00
2019-03-29T08:26:11.941Z,16.82
2019-03-29T08:28:42.160Z,16.02
2019-03-29T08:31:11.829Z,17.17
2019-03-29T08:33:42.016Z,17.25
2019-03-29T08:36:11.229Z,16.00
2019-03-29T08:38:40.449Z,17.12
2019-03-29T08:41:09.709Z,16.25
2019-03-29T08:43:41.015Z,17.57
2019-03-29T08:46:14.219Z,16.80
2019-03-29T08:51:12.710Z,16.65
2019-03-29T08:53:44.526Z,15.90
2019-03-29T08:56:14.621Z,15.58
2019-03-29T08:58:46.529Z,16.48
2019-03-29T09:01:19.028Z,16.77
2019-03-29T09:03:55.201Z,15.55
2019-03-29T09:06:18.105Z,15.38
2019-03-29T09:08:47.393Z,14.40
2019-03-29T09:11:16.633Z,13.48
2019-03-29T09:13:45.941Z,13.18
2019-03-29T09:16:15.167Z,13.32
2019-03-29T09:18:44.367Z,13.45
2019-03-29T09:21:13.595Z,15.03
2019-03-29T09:23:42.826Z,13.00
2019-03-29T09:26:12.714Z,13.95
2019-03-29T09:28:41.947Z,9.83
2019-03-29T09:31:11.514Z,10.98
2019-03-29T09:33:40.739Z,9.58
2019-03-29T09:36:10.801Z,9.63
2019-03-29T09:38:43.496Z,9.45
2019-03-29T09:41:11.062Z,9.60
2019-03-29T09:43:40.548Z,9.93
2019-03-29T09:46:09.786Z,10.82
2019-03-29T09:48:38.995Z,9.80
2019-03-29T09:51:08.217Z,9.53
2019-03-29T09:53:40.856Z,10.45
2019-03-29T09:56:08.397Z,10.32
2019-03-29T09:58:37.879Z,11.55
2019-03-29T10:01:07.107Z,10.35
2019-03-29T10:03:36.801Z,12.23
2019-03-29T10:06:06.166Z,12.28
2019-03-29T10:08:35.846Z,13.88
2019-03-29T10:11:05.081Z,11.93
2019-03-29T10:13:34.328Z,11.53
2019-03-29T10:16:03.550Z,12.90
2019-03-29T10:18:32.781Z,11.73
2019-03-29T10:21:02.003Z,11.00
2019-03-29T10:23:31.230Z,11.05
2019-03-29T10:26:00.510Z,12.95
2019-03-29T10:28:29.743Z,12.75
2019-03-29T10:30:58.976Z,13.78
2019-03-29T10:33:28.232Z,12.73
2019-03-29T10:35:57.518Z,13.05
2019-03-29T10:38:26.808Z,12.73
2019-03-29T10:40:56.109Z,10.50
2019-03-29T10:43:25.629Z,12.10
2019-03-29T10:45:54.835Z,11.73
2019-03-29T10:48:24.066Z,11.33
2019-03-29T10:50:53.308Z,11.38
2019-03-29T10:53:22.519Z,9.98
2019-03-29T10:55:51.734Z,11.65
2019-03-29T10:58:20.966Z,12.05
2019-03-29T11:00:50.193Z,12.28
2019-03-29T11:03:19.413Z,12.15
2019-03-29T11:05:48.699Z,12.65
2019-03-29T11:08:17.914Z,11.75
2019-03-29T11:10:47.147Z,12.05
2019-03-29T11:13:16.517Z,12.23
2019-03-29T11:15:45.804Z,11.93
2019-03-29T11:18:15.032Z,11.65
2019-03-29T11:20:44.311Z,12.10
2019-03-29T11:23:13.940Z,11.50
2019-03-29T11:25:43.233Z,11.43
2019-03-29T11:28:12.540Z,11.50
2019-03-29T11:30:42.928Z,11.83
2019-03-29T11:33:13.603Z,11.00
2019-03-29T11:35:43.064Z,11.08
2019-03-29T11:38:12.270Z,11.50
2019-03-29T11:40:41.486Z,10.10
2019-03-29T11:43:10.717Z,10.72
2019-03-29T11:45:39.922Z,11.53
2019-03-29T11:48:09.783Z,11.48
2019-03-29T11:50:39.341Z,12.07
2019-03-29T11:53:08.611Z,11.65
2019-03-29T11:55:40.397Z,12.47
2019-03-29T11:58:09.639Z,12.17
2019-03-29T12:00:40.747Z,12.63
2019-03-29T12:03:10.167Z,12.07
2019-03-29T12:05:39.323Z,12.13
2019-03-29T12:08:08.716Z,12.13
2019-03-29T12:10:38.343Z,11.57
2019-03-29T12:13:10.535Z,12.43
2019-03-29T12:15:40.284Z,11.50
2019-03-29T12:18:09.626Z,11.85
2019-03-29T12:20:39.393Z,12.03
2019-03-29T12:23:08.642Z,11.88
2019-03-29T12:25:39.310Z,12.55
2019-03-29T12:28:10.215Z,12.60
2019-03-29T12:30:40.095Z,11.43
2019-03-29T12:33:10.140Z,12.95
2019-03-29T12:35:40.912Z,11.43
2019-03-29T12:38:10.122Z,13.43
2019-03-29T12:40:39.376Z,12.63
2019-03-29T12:43:08.603Z,11.05
2019-03-29T12:45:38.406Z,10.35
2019-03-29T12:48:16.993Z,11.35
2019-03-29T12:50:46.289Z,10.30
2019-03-29T12:53:15.524Z,11.88
2019-03-29T12:55:44.841Z,9.83
2019-03-29T12:58:14.050Z,10.05
2019-03-29T13:00:43.258Z,10.88
2019-03-29T13:03:12.580Z,11.50
2019-03-29T13:05:42.758Z,10.23
2019-03-29T13:08:12.020Z,10.43
2019-03-29T13:10:42.719Z,10.65
2019-03-29T13:13:12.080Z,11.78
2019-03-29T13:15:41.874Z,10.88
2019-03-29T13:18:11.250Z,10.43
2019-03-29T13:20:40.555Z,10.08
2019-03-29T13:23:09.993Z,9.53
2019-03-29T13:25:39.281Z,9.78
2019-03-29T13:28:08.576Z,9.60
2019-03-29T13:30:37.805Z,8.78
2019-03-29T13:33:07.129Z,9.53
2019-03-29T13:35:36.318Z,8.98
2019-03-29T13:38:05.604Z,9.55
2019-03-29T13:40:34.898Z,10.43
2019-03-29T13:43:04.196Z,10.48
2019-03-29T13:45:33.577Z,11.22
2019-03-29T13:48:02.870Z,9.08
2019-03-29T13:50:32.063Z,9.13
2019-03-29T13:53:01.287Z,7.83
2019-03-29T13:55:30.480Z,8.48
2019-03-29T13:57:59.675Z,8.53
2019-03-29T14:00:28.903Z,9.28
2019-03-29T14:02:59.249Z,7.85
2019-03-29T14:05:28.462Z,8.90
2019-03-29T14:07:57.682Z,9.65
2019-03-29T14:10:26.882Z,9.75
2019-03-29T14:12:56.104Z,10.13
2019-03-29T14:15:25.308Z,10.78
2019-03-29T14:17:54.531Z,8.98
2019-03-29T14:20:31.918Z,8.75
2019-03-29T14:23:01.673Z,9.83
2019-03-29T14:25:30.896Z,10.90
2019-03-29T14:28:00.125Z,9.50
2019-03-29T14:30:29.427Z,9.75
2019-03-29T14:32:58.642Z,9.15
2019-03-29T14:35:27.866Z,9.43
2019-03-29T14:37:57.063Z,9.43
2019-03-29T14:40:26.292Z,9.13
2019-03-29T14:42:55.586Z,7.25
2019-03-29T14:45:24.841Z,10.53
2019-03-29T14:47:54.058Z,8.93
2019-03-29T14:50:23.292Z,9.28
2019-03-29T14:52:52.495Z,8.98
2019-03-29T14:55:21.785Z,8.30
2019-03-29T14:57:51.007Z,8.45
2019-03-29T15:00:36.831Z,7.75
2019-03-29T15:03:06.171Z,7.15
2019-03-29T15:05:35.398Z,7.00
2019-03-29T15:08:04.678Z,7.12
2019-03-29T15:10:33.875Z,8.40
2019-03-29T15:13:04.043Z,7.87
2019-03-29T15:15:33.239Z,7.65
2019-03-29T15:18:02.432Z,8.48
2019-03-29T15:20:31.713Z,8.05
2019-03-29T15:23:00.930Z,8.30
2019-03-29T15:25:30.123Z,6.78
2019-03-29T15:27:59.353Z,9.15
2019-03-29T15:30:28.658Z,7.92
2019-03-29T15:32:57.940Z,7.50
2019-03-29T15:35:27.131Z,7.40
2019-03-29T15:37:56.359Z,7.05
2019-03-29T15:40:25.554Z,7.30
2019-03-29T15:42:54.754Z,8.03
2019-03-29T15:45:24.056Z,8.65
2019-03-29T15:47:53.273Z,7.25
2019-03-29T15:50:22.495Z,6.12
2019-03-29T15:52:51.702Z,6.17
2019-03-29T15:55:20.944Z,6.70
2019-03-29T15:57:50.135Z,6.90
2019-03-29T16:00:19.334Z,7.42
2019-03-29T16:02:50.744Z,6.92
2019-03-29T16:05:19.941Z,8.00
2019-03-29T16:07:49.136Z,7.90
2019-03-29T16:10:18.442Z,6.67
2019-03-29T16:12:47.655Z,7.45
2019-03-29T16:15:16.863Z,7.45
2019-03-29T16:17:46.085Z,7.58
2019-03-29T16:20:15.359Z,7.85
2019-03-29T16:22:44.582Z,7.35
2019-03-29T16:25:13.870Z,7.65
2019-03-29T16:27:43.096Z,7.55
2019-03-29T16:30:13.482Z,7.67
2019-03-29T16:32:42.777Z,7.60
2019-03-29T16:35:12.193Z,6.92
2019-03-29T16:37:41.396Z,6.22
2019-03-29T16:40:11.104Z,6.08
2019-03-29T16:42:40.322Z,7.03
2019-03-29T16:45:09.784Z,7.05
2019-03-29T16:47:38.970Z,5.92
2019-03-29T16:50:08.969Z,7.22
2019-03-29T16:52:38.198Z,7.10
2019-03-29T16:55:13.665Z,6.10
2019-03-29T16:57:38.998Z,7.10
2019-03-29T17:00:12.439Z,5.92
2019-03-29T17:02:41.143Z,6.15
2019-03-29T17:05:10.776Z,7.15
2019-03-29T17:07:39.981Z,6.72
2019-03-29T17:10:09.756Z,6.78
2019-03-29T17:12:38.975Z,7.67
2019-03-29T17:15:08.356Z,7.60
2019-03-29T17:17:37.661Z,8.88
2019-03-29T17:20:07.578Z,9.23
2019-03-29T17:22:38.054Z,8.60
2019-03-29T17:25:07.936Z,9.35
2019-03-29T17:27:37.213Z,8.35
2019-03-29T17:30:09.491Z,8.88
2019-03-29T17:32:38.727Z,9.00
2019-03-29T17:35:08.319Z,8.70
2019-03-29T17:37:37.519Z,9.43
2019-03-29T17:40:08.066Z,9.70
2019-03-29T17:42:37.599Z,9.70
2019-03-29T17:45:07.717Z,9.05
2019-03-29T17:47:37.546Z,11.38
2019-03-29T17:50:07.480Z,12.80
2019-03-29T17:52:37.041Z,13.78
2019-03-29T17:55:06.990Z,12.15
2019-03-29T17:57:36.191Z,13.45
2019-03-29T18:00:06.994Z,11.60
2019-03-29T18:02:36.230Z,11.65
2019-03-29T18:05:05.963Z,11.83
2019-03-29T18:07:35.176Z,12.23
2019-03-29T18:10:04.800Z,13.48
2019-03-29T18:12:34.022Z,13.35
2019-03-29T18:15:03.265Z,12.95
2019-03-29T18:17:32.550Z,12.70
2019-03-29T18:20:01.782Z,12.53
2019-03-29T18:22:31.034Z,12.25
2019-03-29T18:25:00.450Z,13.28
2019-03-29T18:27:29.797Z,12.73
2019-03-29T18:30:00.397Z,14.55
2019-03-29T18:32:30.104Z,14.73
2019-03-29T18:35:00.099Z,15.25
2019-03-29T18:37:29.396Z,13.98
2019-03-29T18:39:58.990Z,13.40
2019-03-29T18:42:28.520Z,13.83
2019-03-29T18:44:57.749Z,15.18
2019-03-29T18:47:27.343Z,14.60
2019-03-29T18:49:56.558Z,14.65
2019-03-29T18:52:25.793Z,15.32
2019-03-29T18:54:54.991Z,13.53
2019-03-29T18:57:24.191Z,13.60
2019-03-29T18:59:53.417Z,16.40
2019-03-29T19:02:22.618Z,17.95
2019-03-29T19:04:52.133Z,18.48
2019-03-29T19:07:28.608Z,17.95
2019-03-29T19:09:57.846Z,17.17
2019-03-29T19:12:27.049Z,15.98
2019-03-29T19:14:56.279Z,15.90
2019-03-29T19:17:25.805Z,14.98
2019-03-29T19:19:55.005Z,15.23
2019-03-29T19:22:24.642Z,15.20
2019-03-29T19:24:53.927Z,16.35
2019-03-29T19:27:23.123Z,16.93
2019-03-29T19:29:52.325Z,17.35
2019-03-29T19:32:21.920Z,19.98
2019-03-29T19:34:51.213Z,21.07
2019-03-29T19:37:20.478Z,20.77
2019-03-29T19:39:49.679Z,17.10
2019-03-29T19:42:18.887Z,16.87
2019-03-29T19:44:48.250Z,16.37
2019-03-29T19:47:17.449Z,18.07
2019-03-29T19:49:46.650Z,18.57
2019-03-29T19:52:15.878Z,16.50
2019-03-29T19:54:45.084Z,17.77
2019-03-29T19:57:14.311Z,16.40
2019-03-29T19:59:43.542Z,18.05
2019-03-29T20:02:12.757Z,18.42
2019-03-29T20:04:41.946Z,19.35
2019-03-29T20:07:11.181Z,17.65
2019-03-29T20:09:42.077Z,17.15
2019-03-29T20:12:11.534Z,17.27
2019-03-29T20:14:40.776Z,18.65
2019-03-29T20:17:10.335Z,19.25
2019-03-29T20:19:39.841Z,18.82
2019-03-29T20:22:09.073Z,19.37
2019-03-29T20:24:38.277Z,20.75
2019-03-29T20:27:07.481Z,19.35
2019-03-29T20:29:36.706Z,18.62
2019-03-29T20:32:05.946Z,17.02
2019-03-29T20:34:35.479Z,18.40
2019-03-29T20:37:04.702Z,16.82
2019-03-29T20:39:33.938Z,16.45
2019-03-29T20:42:03.240Z,20.23
2019-03-29T20:44:32.749Z,17.23
2019-03-29T20:47:02.283Z,19.15
2019-03-29T20:49:31.785Z,19.23
2019-03-29T20:52:01.307Z,17.90
2019-03-29T20:54:32.038Z,21.02
2019-03-29T20:57:01.252Z,20.48
2019-03-29T20:59:30.455Z,22.27
2019-03-29T21:01:59.959Z,23.32
2019-03-29T21:04:29.196Z,20.02
2019-03-29T21:06:58.425Z,22.10
2019-03-29T21:09:27.659Z,21.73
2019-03-29T21:11:56.900Z,23.20
2019-03-29T21:14:26.117Z,19.60
2019-03-29T21:16:55.317Z,19.52
2019-03-29T21:19:24.543Z,18.20
2019-03-29T21:21:53.744Z,20.92
2019-03-29T21:24:23.050Z,21.40
2019-03-29T21:26:52.543Z,21.50
2019-03-29T21:29:22.293Z,21.50
2019-03-29T21:31:51.519Z,21.80
2019-03-29T21:34:20.750Z,23.65
2019-03-29T21:36:50.000Z,25.32
2019-03-29T21:39:19.235Z,22.73
2019-03-29T21:41:48.448Z,23.07
2019-03-29T21:44:18.265Z,23.77
2019-03-29T21:46:47.506Z,24.82
2019-03-29T21:49:16.723Z,21.55
2019-03-29T21:51:45.933Z,23.07
2019-03-29T21:54:15.169Z,21.68
2019-03-29T21:56:44.406Z,24.37
2019-03-29T21:59:13.612Z,25.32
2019-03-29T22:01:42.849Z,26.00
2019-03-29T22:04:12.056Z,24.60
2019-03-29T22:06:41.266Z,22.48
2019-03-29T22:09:10.786Z,24.75
2019-03-29T22:11:40.281Z,24.92
2019-03-29T22:14:09.471Z,22.73
2019-03-29T22:16:38.785Z,22.13
2019-03-29T22:19:07.987Z,21.95
2019-03-29T22:21:37.220Z,24.10
2019-03-29T22:24:06.420Z,24.47
2019-03-29T22:26:35.653Z,26.45
2019-03-29T22:29:04.858Z,25.35
2019-03-29T22:31:34.088Z,26.57
2019-03-29T22:34:03.320Z,23.90
2019-03-29T22:36:32.542Z,23.62
2019-03-29T22:39:01.767Z,22.98
2019-03-29T22:41:30.996Z,24.75
2019-03-29T22:44:00.193Z,24.05
2019-03-29T22:46:29.397Z,25.25
2019-03-29T22:48:58.619Z,21.82
2019-03-29T22:51:27.825Z,24.70
2019-03-29T22:53:57.040Z,23.67
2019-03-29T22:56:26.239Z,23.02
2019-03-29T22:58:55.505Z,26.52
2019-03-29T23:01:25.298Z,26.37
2019-03-29T23:03:54.495Z,25.50
2019-03-29T23:06:23.719Z,23.87
2019-03-29T23:08:53.293Z,24.90
2019-03-29T23:11:22.503Z,26.07
2019-03-29T23:13:51.722Z,26.93
2019-03-29T23:16:20.937Z,26.73
2019-03-29T23:18:50.180Z,30.15
2019-03-29T23:21:19.372Z,28.52
2019-03-29T23:23:48.590Z,27.77
2019-03-29T23:26:17.827Z,32.20
2019-03-29T23:28:47.168Z,30.23
2019-03-29T23:31:16.326Z,30.08
2019-03-29T23:33:45.817Z,31.00
2019-03-29T23:36:15.387Z,27.75
2019-03-29T23:38:44.945Z,28.38
2019-03-29T23:41:14.233Z,28.32
2019-03-29T23:43:43.447Z,26.30
2019-03-29T23:46:12.679Z,28.83
2019-03-29T23:48:41.876Z,31.52
2019-03-29T23:51:11.413Z,29.18
2019-03-29T23:53:40.636Z,26.65
2019-03-29T23:56:09.845Z,25.40
2019-03-29T23:58:39.315Z,31.12
